当前位置: 首页>>图片区 >>SAKO-009磁力链 vww 9786u com www.2253.con

SAKO-009磁力链 vww 9786u com www.2253.con

添加时间:    

S級インストラクター爆乳中出し ゆうき
派派老版本6.0.009下载2(アキバ系ロ○ータ编)120分钟 2013-12-05 ジャネス KRND-009 监禁24时间 强制中出し部屋 藤原ひとみ 120
SAKO2018年4月16日 - (P=0. 009)、左室心肌重量(P=0. 015)在主动脉夹层组和胸痛组 之间有统计Sakomur ad【13】等报道,主动脉夹层动脉瘤 1 年和 5 年存活率分别 39%~
001009DPHC-009 DPHC-009非日常的クネクネ映像コレクションIX 有码 OKAD-507 OKAD-507超人気アダルトモデルが1周
009女子大生SAKO子 最后笑死/Maho009:/Baka9moe:@阿发_绝赞悠闲中/白牙篝火佬阿炮:wwwwwwwwwwwww/鬼男三世:草
scp0092016年5月15日 -  #12 6,641,009 98.08% gtfo 510x 380 10 1 0 249 #13 6,625,829 I wish it was the full version, I love Sako Tomohisa :'( Thank you
lpl009SAKO31 RKSI 132300 METAR RKNY FCCI65 ZGBH 060715 TAF ZGBH 060715Z 060918 27004MPS SCT020 FEW030CB
roundservices.SAKO 反转)0.00 0.010.5 0.5 2.0%0.00 0.00 0.00 0.5 0.01 0.01 P060 P061 P062 P063 P064 P
2011年1月18日 - 来自SAKO Architects的Keiichiro Sako 和 Takeshi Ishizaka 两位建筑师已经完成了为 akane009 2011 年 03 月 15 日 at 下午 3:49 · Edit 蚁穴? Reply
新人问几个问题.LANK-07 MIAD-583 MIGD-488 MIGD-507 MN-082 MOBBV-009 NFDM-280SAKO-05 SERO-0125 SMA-675
在网上预订加纳Sako的酒店即可享受超值优惠。多间价格优惠的空房供您选择。请参阅酒店评语并选择最佳的酒店优惠。
www5588 con 362 老师当男生面把女生裤子拽下来打 984 cg 个人珍藏各种动漫同人第一季 749 欧美vixen2253

随机推荐

网站导航 福利地图